sensor_id;sensor_type;location;lat;lon;timestamp;P1;durP1;ratioP1;P2;durP2;ratioP2
14326;SDS011;7247;53.330;-1.180;2023-05-03T00:01:30;7.43;;;4.37;;
14326;SDS011;7247;53.330;-1.180;2023-05-03T00:03:57;7.10;;;4.07;;
14326;SDS011;7247;53.330;-1.180;2023-05-03T00:06:23;7.10;;;4.60;;
14326;SDS011;7247;53.330;-1.180;2023-05-03T00:08:50;7.63;;;4.97;;
14326;SDS011;7247;53.330;-1.180;2023-05-03T00:11:18;7.47;;;4.50;;
14326;SDS011;7247;53.330;-1.180;2023-05-03T00:13:45;6.47;;;4.70;;
14326;SDS011;7247;53.330;-1.180;2023-05-03T00:16:11;8.73;;;4.73;;
14326;SDS011;7247;53.330;-1.180;2023-05-03T00:18:38;9.27;;;4.73;;
14326;SDS011;7247;53.330;-1.180;2023-05-03T00:21:04;7.23;;;4.73;;
14326;SDS011;7247;53.330;-1.180;2023-05-03T00:23:30;6.30;;;4.63;;
14326;SDS011;7247;53.330;-1.180;2023-05-03T00:25:57;8.57;;;4.90;;
14326;SDS011;7247;53.330;-1.180;2023-05-03T00:28:25;7.57;;;4.87;;
14326;SDS011;7247;53.330;-1.180;2023-05-03T00:30:52;8.00;;;4.80;;
14326;SDS011;7247;53.330;-1.180;2023-05-03T00:33:18;6.93;;;4.50;;
14326;SDS011;7247;53.330;-1.180;2023-05-03T00:35:44;11.10;;;5.20;;
14326;SDS011;7247;53.330;-1.180;2023-05-03T00:38:11;7.40;;;5.30;;
14326;SDS011;7247;53.330;-1.180;2023-05-03T00:40:38;10.60;;;4.90;;
14326;SDS011;7247;53.330;-1.180;2023-05-03T00:43:04;6.40;;;5.03;;
14326;SDS011;7247;53.330;-1.180;2023-05-03T00:45:33;10.77;;;5.60;;
14326;SDS011;7247;53.330;-1.180;2023-05-03T00:47:59;7.67;;;5.53;;
14326;SDS011;7247;53.330;-1.180;2023-05-03T00:50:26;8.03;;;5.27;;
14326;SDS011;7247;53.330;-1.180;2023-05-03T00:52:53;8.40;;;5.53;;
14326;SDS011;7247;53.330;-1.180;2023-05-03T00:55:19;11.27;;;5.67;;
14326;SDS011;7247;53.330;-1.180;2023-05-03T00:57:46;10.93;;;5.57;;
14326;SDS011;7247;53.330;-1.180;2023-05-03T01:00:13;8.87;;;6.00;;
14326;SDS011;7247;53.330;-1.180;2023-05-03T01:02:41;13.20;;;6.53;;
14326;SDS011;7247;53.330;-1.180;2023-05-03T01:05:07;11.10;;;6.73;;
14326;SDS011;7247;53.330;-1.180;2023-05-03T01:07:35;12.93;;;6.47;;
14326;SDS011;7247;53.330;-1.180;2023-05-03T01:10:07;8.60;;;6.20;;
14326;SDS011;7247;53.330;-1.180;2023-05-03T01:12:41;9.73;;;6.27;;
14326;SDS011;7247;53.330;-1.180;2023-05-03T01:15:11;9.97;;;6.47;;
14326;SDS011;7247;53.330;-1.180;2023-05-03T01:17:39;12.63;;;6.93;;
14326;SDS011;7247;53.330;-1.180;2023-05-03T01:20:09;11.50;;;6.47;;
14326;SDS011;7247;53.330;-1.180;2023-05-03T01:22:41;16.17;;;7.90;;
14326;SDS011;7247;53.330;-1.180;2023-05-03T01:25:10;10.30;;;6.83;;
14326;SDS011;7247;53.330;-1.180;2023-05-03T01:27:37;13.90;;;7.63;;
14326;SDS011;7247;53.330;-1.180;2023-05-03T01:30:05;15.50;;;6.97;;
14326;SDS011;7247;53.330;-1.180;2023-05-03T01:32:34;12.17;;;6.97;;
14326;SDS011;7247;53.330;-1.180;2023-05-03T01:35:03;11.57;;;6.83;;
14326;SDS011;7247;53.330;-1.180;2023-05-03T01:37:29;13.43;;;8.17;;
14326;SDS011;7247;53.330;-1.180;2023-05-03T01:39:57;13.97;;;7.47;;
14326;SDS011;7247;53.330;-1.180;2023-05-03T01:42:26;12.87;;;7.23;;
14326;SDS011;7247;53.330;-1.180;2023-05-03T01:44:52;12.37;;;7.23;;
14326;SDS011;7247;53.330;-1.180;2023-05-03T01:47:19;13.27;;;7.93;;
14326;SDS011;7247;53.330;-1.180;2023-05-03T01:49:47;13.53;;;8.13;;
14326;SDS011;7247;53.330;-1.180;2023-05-03T01:52:13;14.23;;;8.17;;
14326;SDS011;7247;53.330;-1.180;2023-05-03T01:54:39;11.20;;;7.40;;
14326;SDS011;7247;53.330;-1.180;2023-05-03T01:57:06;15.10;;;8.40;;
14326;SDS011;7247;53.330;-1.180;2023-05-03T01:59:34;14.97;;;7.87;;
14326;SDS011;7247;53.330;-1.180;2023-05-03T02:02:00;10.50;;;7.27;;
14326;SDS011;7247;53.330;-1.180;2023-05-03T02:04:27;15.17;;;7.60;;
14326;SDS011;7247;53.330;-1.180;2023-05-03T02:06:54;14.17;;;8.47;;
14326;SDS011;7247;53.330;-1.180;2023-05-03T02:09:20;15.90;;;8.40;;
14326;SDS011;7247;53.330;-1.180;2023-05-03T02:11:47;15.07;;;8.57;;
14326;SDS011;7247;53.330;-1.180;2023-05-03T02:14:13;16.23;;;8.60;;
14326;SDS011;7247;53.330;-1.180;2023-05-03T02:16:41;14.27;;;8.63;;
14326;SDS011;7247;53.330;-1.180;2023-05-03T02:19:08;14.90;;;9.03;;
14326;SDS011;7247;53.330;-1.180;2023-05-03T02:21:36;16.03;;;9.23;;
14326;SDS011;7247;53.330;-1.180;2023-05-03T02:24:02;14.07;;;8.30;;
14326;SDS011;7247;53.330;-1.180;2023-05-03T02:26:29;12.47;;;8.77;;
14326;SDS011;7247;53.330;-1.180;2023-05-03T02:28:55;14.10;;;8.93;;
14326;SDS011;7247;53.330;-1.180;2023-05-03T02:31:22;16.40;;;9.57;;
14326;SDS011;7247;53.330;-1.180;2023-05-03T02:33:49;15.60;;;9.30;;
14326;SDS011;7247;53.330;-1.180;2023-05-03T02:36:16;17.57;;;9.13;;
14326;SDS011;7247;53.330;-1.180;2023-05-03T02:38:42;20.83;;;9.33;;
14326;SDS011;7247;53.330;-1.180;2023-05-03T02:41:09;12.67;;;8.20;;
14326;SDS011;7247;53.330;-1.180;2023-05-03T02:43:35;14.97;;;8.40;;
14326;SDS011;7247;53.330;-1.180;2023-05-03T02:46:01;13.37;;;8.97;;
14326;SDS011;7247;53.330;-1.180;2023-05-03T02:48:28;11.80;;;8.30;;
14326;SDS011;7247;53.330;-1.180;2023-05-03T02:50:55;17.60;;;9.50;;
14326;SDS011;7247;53.330;-1.180;2023-05-03T02:53:22;13.13;;;8.53;;
14326;SDS011;7247;53.330;-1.180;2023-05-03T02:55:48;12.73;;;8.10;;
14326;SDS011;7247;53.330;-1.180;2023-05-03T02:58:15;12.53;;;7.90;;
14326;SDS011;7247;53.330;-1.180;2023-05-03T03:00:41;13.37;;;8.27;;
14326;SDS011;7247;53.330;-1.180;2023-05-03T03:03:08;12.63;;;7.87;;
14326;SDS011;7247;53.330;-1.180;2023-05-03T03:05:34;13.87;;;8.80;;
14326;SDS011;7247;53.330;-1.180;2023-05-03T03:08:02;9.97;;;7.67;;
14326;SDS011;7247;53.330;-1.180;2023-05-03T03:10:28;10.63;;;8.20;;
14326;SDS011;7247;53.330;-1.180;2023-05-03T03:12:55;9.67;;;7.47;;
14326;SDS011;7247;53.330;-1.180;2023-05-03T03:15:21;13.17;;;9.60;;
14326;SDS011;7247;53.330;-1.180;2023-05-03T03:17:47;20.10;;;9.20;;
14326;SDS011;7247;53.330;-1.180;2023-05-03T03:20:14;14.50;;;8.13;;
14326;SDS011;7247;53.330;-1.180;2023-05-03T03:22:40;12.57;;;8.03;;
14326;SDS011;7247;53.330;-1.180;2023-05-03T03:25:09;10.83;;;7.73;;
14326;SDS011;7247;53.330;-1.180;2023-05-03T03:27:35;13.27;;;8.23;;
14326;SDS011;7247;53.330;-1.180;2023-05-03T03:30:02;10.67;;;8.33;;
14326;SDS011;7247;53.330;-1.180;2023-05-03T03:32:29;15.10;;;8.03;;
14326;SDS011;7247;53.330;-1.180;2023-05-03T03:34:55;13.10;;;7.87;;
14326;SDS011;7247;53.330;-1.180;2023-05-03T03:37:21;15.87;;;9.20;;
14326;SDS011;7247;53.330;-1.180;2023-05-03T03:39:48;16.07;;;9.63;;
14326;SDS011;7247;53.330;-1.180;2023-05-03T03:42:16;16.13;;;9.17;;
14326;SDS011;7247;53.330;-1.180;2023-05-03T03:44:42;15.47;;;8.53;;
14326;SDS011;7247;53.330;-1.180;2023-05-03T03:47:09;14.97;;;9.83;;
14326;SDS011;7247;53.330;-1.180;2023-05-03T03:49:35;15.50;;;9.80;;
14326;SDS011;7247;53.330;-1.180;2023-05-03T03:52:02;15.63;;;9.93;;
14326;SDS011;7247;53.330;-1.180;2023-05-03T03:54:28;20.03;;;10.40;;
14326;SDS011;7247;53.330;-1.180;2023-05-03T03:56:54;17.70;;;10.33;;
14326;SDS011;7247;53.330;-1.180;2023-05-03T03:59:22;18.90;;;10.53;;
14326;SDS011;7247;53.330;-1.180;2023-05-03T04:01:49;20.13;;;10.70;;
14326;SDS011;7247;53.330;-1.180;2023-05-03T04:04:15;18.60;;;10.70;;
14326;SDS011;7247;53.330;-1.180;2023-05-03T04:06:41;19.57;;;10.27;;
14326;SDS011;7247;53.330;-1.180;2023-05-03T04:09:08;16.50;;;9.93;;
14326;SDS011;7247;53.330;-1.180;2023-05-03T04:11:35;13.73;;;9.07;;
14326;SDS011;7247;53.330;-1.180;2023-05-03T04:14:01;15.43;;;8.97;;
14326;SDS011;7247;53.330;-1.180;2023-05-03T04:16:29;17.40;;;10.37;;
14326;SDS011;7247;53.330;-1.180;2023-05-03T04:18:56;17.97;;;10.90;;
14326;SDS011;7247;53.330;-1.180;2023-05-03T04:21:22;16.63;;;9.20;;
14326;SDS011;7247;53.330;-1.180;2023-05-03T04:23:48;18.50;;;10.37;;
14326;SDS011;7247;53.330;-1.180;2023-05-03T04:26:15;13.37;;;9.27;;
14326;SDS011;7247;53.330;-1.180;2023-05-03T04:28:42;15.40;;;9.50;;
14326;SDS011;7247;53.330;-1.180;2023-05-03T04:31:09;18.07;;;9.07;;
14326;SDS011;7247;53.330;-1.180;2023-05-03T04:33:37;15.50;;;9.00;;
14326;SDS011;7247;53.330;-1.180;2023-05-03T04:36:04;13.77;;;8.90;;
14326;SDS011;7247;53.330;-1.180;2023-05-03T04:38:30;13.30;;;8.80;;
14326;SDS011;7247;53.330;-1.180;2023-05-03T04:40:57;13.13;;;8.27;;
14326;SDS011;7247;53.330;-1.180;2023-05-03T04:43:23;12.23;;;8.27;;
14326;SDS011;7247;53.330;-1.180;2023-05-03T04:45:50;15.43;;;9.03;;
14326;SDS011;7247;53.330;-1.180;2023-05-03T04:48:17;11.87;;;8.57;;
14326;SDS011;7247;53.330;-1.180;2023-05-03T04:50:44;13.80;;;9.00;;
14326;SDS011;7247;53.330;-1.180;2023-05-03T04:53:11;13.07;;;8.83;;
14326;SDS011;7247;53.330;-1.180;2023-05-03T04:55:37;12.90;;;8.80;;
14326;SDS011;7247;53.330;-1.180;2023-05-03T04:58:03;9.77;;;7.27;;
14326;SDS011;7247;53.330;-1.180;2023-05-03T05:00:30;9.63;;;7.10;;
14326;SDS011;7247;53.330;-1.180;2023-05-03T05:02:57;11.47;;;7.23;;
14326;SDS011;7247;53.330;-1.180;2023-05-03T05:05:23;10.17;;;7.60;;
14326;SDS011;7247;53.330;-1.180;2023-05-03T05:07:51;11.60;;;7.73;;
14326;SDS011;7247;53.330;-1.180;2023-05-03T05:10:17;12.27;;;7.50;;
14326;SDS011;7247;53.330;-1.180;2023-05-03T05:12:44;12.63;;;7.33;;
14326;SDS011;7247;53.330;-1.180;2023-05-03T05:15:10;10.23;;;7.63;;
14326;SDS011;7247;53.330;-1.180;2023-05-03T05:17:37;11.43;;;7.50;;
14326;SDS011;7247;53.330;-1.180;2023-05-03T05:20:04;14.33;;;7.57;;
14326;SDS011;7247;53.330;-1.180;2023-05-03T05:22:32;11.03;;;6.90;;
14326;SDS011;7247;53.330;-1.180;2023-05-03T05:25:00;11.13;;;7.40;;
14326;SDS011;7247;53.330;-1.180;2023-05-03T05:27:27;13.73;;;8.83;;
14326;SDS011;7247;53.330;-1.180;2023-05-03T05:29:54;14.43;;;8.93;;
14326;SDS011;7247;53.330;-1.180;2023-05-03T05:32:21;12.73;;;8.77;;
14326;SDS011;7247;53.330;-1.180;2023-05-03T05:34:47;12.17;;;8.50;;
14326;SDS011;7247;53.330;-1.180;2023-05-03T05:37:19;17.10;;;9.43;;
14326;SDS011;7247;53.330;-1.180;2023-05-03T05:39:45;14.83;;;9.03;;
14326;SDS011;7247;53.330;-1.180;2023-05-03T05:42:13;14.43;;;9.17;;
14326;SDS011;7247;53.330;-1.180;2023-05-03T05:44:40;14.50;;;9.07;;
14326;SDS011;7247;53.330;-1.180;2023-05-03T05:47:07;15.60;;;9.43;;
14326;SDS011;7247;53.330;-1.180;2023-05-03T05:49:33;14.93;;;9.83;;
14326;SDS011;7247;53.330;-1.180;2023-05-03T05:52:00;19.03;;;10.63;;
14326;SDS011;7247;53.330;-1.180;2023-05-03T05:54:26;16.33;;;10.90;;
14326;SDS011;7247;53.330;-1.180;2023-05-03T05:56:53;15.63;;;10.83;;
14326;SDS011;7247;53.330;-1.180;2023-05-03T05:59:21;18.53;;;11.47;;
14326;SDS011;7247;53.330;-1.180;2023-05-03T06:01:47;17.17;;;10.40;;
14326;SDS011;7247;53.330;-1.180;2023-05-03T06:04:14;15.83;;;10.43;;
14326;SDS011;7247;53.330;-1.180;2023-05-03T06:06:40;18.30;;;10.37;;
14326;SDS011;7247;53.330;-1.180;2023-05-03T06:09:07;20.07;;;11.40;;
14326;SDS011;7247;53.330;-1.180;2023-05-03T06:11:33;18.47;;;10.00;;
14326;SDS011;7247;53.330;-1.180;2023-05-03T06:14:01;14.83;;;10.23;;
14326;SDS011;7247;53.330;-1.180;2023-05-03T06:16:34;16.87;;;10.00;;
14326;SDS011;7247;53.330;-1.180;2023-05-03T06:19:01;13.67;;;10.13;;
14326;SDS011;7247;53.330;-1.180;2023-05-03T06:21:29;17.03;;;9.97;;
14326;SDS011;7247;53.330;-1.180;2023-05-03T06:23:55;17.57;;;10.20;;
14326;SDS011;7247;53.330;-1.180;2023-05-03T06:26:21;17.30;;;10.80;;
14326;SDS011;7247;53.330;-1.180;2023-05-03T06:28:48;16.57;;;11.47;;
14326;SDS011;7247;53.330;-1.180;2023-05-03T06:31:16;15.97;;;9.93;;
14326;SDS011;7247;53.330;-1.180;2023-05-03T06:33:44;16.20;;;9.87;;
14326;SDS011;7247;53.330;-1.180;2023-05-03T06:36:10;12.40;;;9.33;;
14326;SDS011;7247;53.330;-1.180;2023-05-03T06:38:37;17.23;;;9.90;;
14326;SDS011;7247;53.330;-1.180;2023-05-03T06:41:03;14.97;;;9.33;;
14326;SDS011;7247;53.330;-1.180;2023-05-03T06:43:29;15.27;;;9.63;;
14326;SDS011;7247;53.330;-1.180;2023-05-03T06:45:56;16.80;;;10.43;;
14326;SDS011;7247;53.330;-1.180;2023-05-03T06:48:22;18.13;;;9.90;;
14326;SDS011;7247;53.330;-1.180;2023-05-03T06:50:50;16.37;;;10.40;;
14326;SDS011;7247;53.330;-1.180;2023-05-03T06:53:16;16.63;;;9.27;;
14326;SDS011;7247;53.330;-1.180;2023-05-03T06:55:43;16.67;;;8.97;;
14326;SDS011;7247;53.330;-1.180;2023-05-03T06:58:10;17.53;;;10.10;;
14326;SDS011;7247;53.330;-1.180;2023-05-03T07:00:37;15.07;;;9.53;;
14326;SDS011;7247;53.330;-1.180;2023-05-03T07:03:04;15.97;;;9.40;;
14326;SDS011;7247;53.330;-1.180;2023-05-03T07:05:31;13.90;;;8.87;;
14326;SDS011;7247;53.330;-1.180;2023-05-03T07:07:58;14.33;;;8.90;;
14326;SDS011;7247;53.330;-1.180;2023-05-03T07:10:26;16.30;;;9.20;;
14326;SDS011;7247;53.330;-1.180;2023-05-03T07:12:54;14.07;;;9.17;;
14326;SDS011;7247;53.330;-1.180;2023-05-03T07:15:21;16.23;;;9.47;;
14326;SDS011;7247;53.330;-1.180;2023-05-03T07:17:47;19.73;;;9.67;;
14326;SDS011;7247;53.330;-1.180;2023-05-03T07:20:14;17.70;;;8.97;;
14326;SDS011;7247;53.330;-1.180;2023-05-03T07:22:40;15.10;;;9.17;;
14326;SDS011;7247;53.330;-1.180;2023-05-03T07:25:09;12.43;;;8.60;;
14326;SDS011;7247;53.330;-1.180;2023-05-03T07:27:36;13.23;;;8.83;;
14326;SDS011;7247;53.330;-1.180;2023-05-03T07:30:03;13.20;;;8.70;;
14326;SDS011;7247;53.330;-1.180;2023-05-03T07:32:29;15.13;;;8.67;;
14326;SDS011;7247;53.330;-1.180;2023-05-03T07:34:57;11.80;;;8.40;;
14326;SDS011;7247;53.330;-1.180;2023-05-03T07:37:23;12.37;;;8.87;;
14326;SDS011;7247;53.330;-1.180;2023-05-03T07:39:51;12.30;;;8.17;;
14326;SDS011;7247;53.330;-1.180;2023-05-03T07:42:19;13.90;;;8.43;;
14326;SDS011;7247;53.330;-1.180;2023-05-03T07:44:46;15.33;;;9.37;;
14326;SDS011;7247;53.330;-1.180;2023-05-03T07:47:12;15.00;;;8.67;;
14326;SDS011;7247;53.330;-1.180;2023-05-03T07:49:39;12.13;;;9.17;;
14326;SDS011;7247;53.330;-1.180;2023-05-03T07:52:05;13.70;;;8.73;;
14326;SDS011;7247;53.330;-1.180;2023-05-03T07:54:32;14.37;;;8.57;;
14326;SDS011;7247;53.330;-1.180;2023-05-03T07:56:58;12.07;;;7.33;;
14326;SDS011;7247;53.330;-1.180;2023-05-03T07:59:26;11.53;;;7.50;;
14326;SDS011;7247;53.330;-1.180;2023-05-03T08:01:53;10.03;;;6.70;;
14326;SDS011;7247;53.330;-1.180;2023-05-03T08:04:19;9.40;;;6.00;;
14326;SDS011;7247;53.330;-1.180;2023-05-03T08:06:48;8.30;;;6.27;;
14326;SDS011;7247;53.330;-1.180;2023-05-03T08:09:14;10.33;;;7.07;;
14326;SDS011;7247;53.330;-1.180;2023-05-03T08:11:41;8.30;;;6.47;;
14326;SDS011;7247;53.330;-1.180;2023-05-03T08:14:08;7.63;;;5.30;;
14326;SDS011;7247;53.330;-1.180;2023-05-03T08:16:35;11.47;;;5.70;;
14326;SDS011;7247;53.330;-1.180;2023-05-03T08:19:02;9.17;;;6.33;;
14326;SDS011;7247;53.330;-1.180;2023-05-03T08:21:28;10.03;;;5.77;;
14326;SDS011;7247;53.330;-1.180;2023-05-03T08:23:55;8.77;;;5.80;;
14326;SDS011;7247;53.330;-1.180;2023-05-03T08:26:21;7.53;;;5.47;;
14326;SDS011;7247;53.330;-1.180;2023-05-03T08:28:48;10.43;;;6.13;;
14326;SDS011;7247;53.330;-1.180;2023-05-03T08:31:14;8.57;;;4.83;;
14326;SDS011;7247;53.330;-1.180;2023-05-03T08:33:43;8.10;;;4.60;;
14326;SDS011;7247;53.330;-1.180;2023-05-03T08:36:09;8.67;;;5.10;;
14326;SDS011;7247;53.330;-1.180;2023-05-03T08:38:36;8.80;;;4.43;;
14326;SDS011;7247;53.330;-1.180;2023-05-03T08:41:07;7.67;;;4.57;;
14326;SDS011;7247;53.330;-1.180;2023-05-03T08:43:35;9.10;;;5.30;;
14326;SDS011;7247;53.330;-1.180;2023-05-03T08:46:04;10.63;;;5.87;;
14326;SDS011;7247;53.330;-1.180;2023-05-03T08:48:30;6.97;;;3.83;;
14326;SDS011;7247;53.330;-1.180;2023-05-03T08:50:58;6.60;;;3.70;;
14326;SDS011;7247;53.330;-1.180;2023-05-03T08:53:25;6.33;;;4.27;;
14326;SDS011;7247;53.330;-1.180;2023-05-03T08:55:51;6.70;;;3.77;;
14326;SDS011;7247;53.330;-1.180;2023-05-03T08:58:18;6.30;;;3.60;;
14326;SDS011;7247;53.330;-1.180;2023-05-03T09:00:44;5.50;;;3.30;;
14326;SDS011;7247;53.330;-1.180;2023-05-03T09:03:11;6.47;;;3.60;;
14326;SDS011;7247;53.330;-1.180;2023-05-03T09:05:37;8.33;;;5.00;;
14326;SDS011;7247;53.330;-1.180;2023-05-03T09:08:07;4.17;;;3.07;;
14326;SDS011;7247;53.330;-1.180;2023-05-03T09:10:36;6.30;;;3.23;;
14326;SDS011;7247;53.330;-1.180;2023-05-03T09:13:02;4.83;;;3.30;;
14326;SDS011;7247;53.330;-1.180;2023-05-03T09:15:29;8.80;;;3.43;;
14326;SDS011;7247;53.330;-1.180;2023-05-03T09:18:08;6.13;;;3.43;;
14326;SDS011;7247;53.330;-1.180;2023-05-03T09:20:35;4.87;;;3.20;;
14326;SDS011;7247;53.330;-1.180;2023-05-03T09:23:02;6.30;;;3.03;;
14326;SDS011;7247;53.330;-1.180;2023-05-03T09:25:40;5.90;;;3.40;;
14326;SDS011;7247;53.330;-1.180;2023-05-03T09:28:06;6.47;;;3.50;;
14326;SDS011;7247;53.330;-1.180;2023-05-03T09:30:33;7.90;;;3.90;;
14326;SDS011;7247;53.330;-1.180;2023-05-03T09:32:59;7.23;;;3.83;;
14326;SDS011;7247;53.330;-1.180;2023-05-03T09:35:26;5.43;;;4.13;;
14326;SDS011;7247;53.330;-1.180;2023-05-03T09:37:53;5.80;;;3.47;;
14326;SDS011;7247;53.330;-1.180;2023-05-03T09:40:19;5.90;;;3.77;;
14326;SDS011;7247;53.330;-1.180;2023-05-03T09:45:28;5.67;;;3.40;;
14326;SDS011;7247;53.330;-1.180;2023-05-03T09:47:55;5.53;;;3.27;;
14326;SDS011;7247;53.330;-1.180;2023-05-03T09:50:22;4.93;;;3.60;;
14326;SDS011;7247;53.330;-1.180;2023-05-03T09:52:50;5.30;;;3.47;;
14326;SDS011;7247;53.330;-1.180;2023-05-03T09:55:17;6.03;;;3.63;;
14326;SDS011;7247;53.330;-1.180;2023-05-03T09:57:46;5.87;;;3.93;;
14326;SDS011;7247;53.330;-1.180;2023-05-03T10:00:15;5.37;;;3.60;;
14326;SDS011;7247;53.330;-1.180;2023-05-03T10:02:46;5.67;;;3.83;;
14326;SDS011;7247;53.330;-1.180;2023-05-03T10:05:14;7.10;;;3.80;;
14326;SDS011;7247;53.330;-1.180;2023-05-03T10:07:42;5.20;;;3.40;;
14326;SDS011;7247;53.330;-1.180;2023-05-03T10:10:09;7.17;;;3.80;;
14326;SDS011;7247;53.330;-1.180;2023-05-03T10:12:35;5.17;;;3.87;;
14326;SDS011;7247;53.330;-1.180;2023-05-03T10:15:03;6.00;;;4.03;;
14326;SDS011;7247;53.330;-1.180;2023-05-03T10:17:31;6.73;;;3.93;;
14326;SDS011;7247;53.330;-1.180;2023-05-03T10:20:01;7.87;;;4.20;;
14326;SDS011;7247;53.330;-1.180;2023-05-03T10:22:45;6.90;;;4.13;;
14326;SDS011;7247;53.330;-1.180;2023-05-03T10:25:29;6.00;;;4.50;;
14326;SDS011;7247;53.330;-1.180;2023-05-03T10:28:00;7.43;;;4.53;;
14326;SDS011;7247;53.330;-1.180;2023-05-03T10:30:27;7.07;;;4.83;;
14326;SDS011;7247;53.330;-1.180;2023-05-03T10:32:55;8.37;;;4.60;;
14326;SDS011;7247;53.330;-1.180;2023-05-03T10:35:24;6.33;;;4.40;;
14326;SDS011;7247;53.330;-1.180;2023-05-03T10:37:51;6.77;;;4.70;;
14326;SDS011;7247;53.330;-1.180;2023-05-03T10:40:18;5.73;;;4.70;;
14326;SDS011;7247;53.330;-1.180;2023-05-03T10:42:49;5.73;;;4.33;;
14326;SDS011;7247;53.330;-1.180;2023-05-03T10:45:19;6.07;;;4.43;;
14326;SDS011;7247;53.330;-1.180;2023-05-03T10:50:28;5.17;;;3.77;;
14326;SDS011;7247;53.330;-1.180;2023-05-03T10:52:55;4.63;;;3.20;;
14326;SDS011;7247;53.330;-1.180;2023-05-03T10:55:22;5.47;;;3.03;;
14326;SDS011;7247;53.330;-1.180;2023-05-03T10:57:52;4.50;;;3.83;;
14326;SDS011;7247;53.330;-1.180;2023-05-03T11:00:21;6.03;;;4.43;;
14326;SDS011;7247;53.330;-1.180;2023-05-03T11:05:34;5.37;;;4.50;;
14326;SDS011;7247;53.330;-1.180;2023-05-03T11:08:10;7.40;;;4.77;;
14326;SDS011;7247;53.330;-1.180;2023-05-03T11:10:37;4.93;;;4.40;;
14326;SDS011;7247;53.330;-1.180;2023-05-03T11:13:03;5.87;;;4.77;;
14326;SDS011;7247;53.330;-1.180;2023-05-03T11:15:30;6.60;;;5.60;;
14326;SDS011;7247;53.330;-1.180;2023-05-03T11:17:57;6.57;;;5.60;;
14326;SDS011;7247;53.330;-1.180;2023-05-03T11:20:23;6.73;;;5.43;;
14326;SDS011;7247;53.330;-1.180;2023-05-03T11:22:52;6.87;;;5.67;;
14326;SDS011;7247;53.330;-1.180;2023-05-03T11:25:18;5.87;;;5.37;;
14326;SDS011;7247;53.330;-1.180;2023-05-03T11:27:44;7.33;;;5.20;;
14326;SDS011;7247;53.330;-1.180;2023-05-03T11:30:12;6.20;;;5.30;;
14326;SDS011;7247;53.330;-1.180;2023-05-03T11:32:39;7.30;;;5.47;;
14326;SDS011;7247;53.330;-1.180;2023-05-03T11:35:05;6.97;;;5.20;;
14326;SDS011;7247;53.330;-1.180;2023-05-03T11:37:32;6.90;;;5.27;;
14326;SDS011;7247;53.330;-1.180;2023-05-03T11:40:00;6.30;;;5.37;;
14326;SDS011;7247;53.330;-1.180;2023-05-03T11:42:26;7.43;;;5.33;;
14326;SDS011;7247;53.330;-1.180;2023-05-03T11:44:53;5.00;;;4.60;;
14326;SDS011;7247;53.330;-1.180;2023-05-03T11:47:20;5.47;;;4.50;;
14326;SDS011;7247;53.330;-1.180;2023-05-03T11:49:50;6.00;;;4.63;;
14326;SDS011;7247;53.330;-1.180;2023-05-03T11:52:19;7.07;;;4.10;;
14326;SDS011;7247;53.330;-1.180;2023-05-03T11:54:45;5.03;;;4.10;;
14326;SDS011;7247;53.330;-1.180;2023-05-03T11:57:13;6.37;;;3.63;;
14326;SDS011;7247;53.330;-1.180;2023-05-03T11:59:40;4.50;;;2.90;;
14326;SDS011;7247;53.330;-1.180;2023-05-03T12:02:08;3.23;;;2.87;;
14326;SDS011;7247;53.330;-1.180;2023-05-03T12:04:35;3.70;;;2.70;;
14326;SDS011;7247;53.330;-1.180;2023-05-03T12:07:05;4.10;;;2.80;;
14326;SDS011;7247;53.330;-1.180;2023-05-03T12:09:31;3.73;;;2.50;;
14326;SDS011;7247;53.330;-1.180;2023-05-03T12:11:58;3.70;;;2.50;;
14326;SDS011;7247;53.330;-1.180;2023-05-03T12:14:26;3.77;;;2.50;;
14326;SDS011;7247;53.330;-1.180;2023-05-03T12:16:52;2.87;;;2.30;;
14326;SDS011;7247;53.330;-1.180;2023-05-03T12:19:23;2.87;;;2.40;;
14326;SDS011;7247;53.330;-1.180;2023-05-03T12:21:50;5.93;;;2.10;;
14326;SDS011;7247;53.330;-1.180;2023-05-03T12:24:16;3.43;;;2.10;;
14326;SDS011;7247;53.330;-1.180;2023-05-03T12:26:43;3.57;;;2.10;;
14326;SDS011;7247;53.330;-1.180;2023-05-03T12:29:10;3.27;;;2.00;;
14326;SDS011;7247;53.330;-1.180;2023-05-03T12:31:38;3.60;;;2.10;;
14326;SDS011;7247;53.330;-1.180;2023-05-03T12:34:04;3.17;;;2.23;;
14326;SDS011;7247;53.330;-1.180;2023-05-03T12:36:31;3.77;;;2.03;;
14326;SDS011;7247;53.330;-1.180;2023-05-03T12:38:58;2.47;;;2.00;;
14326;SDS011;7247;53.330;-1.180;2023-05-03T12:41:24;2.37;;;1.90;;
14326;SDS011;7247;53.330;-1.180;2023-05-03T12:43:53;3.40;;;2.07;;
14326;SDS011;7247;53.330;-1.180;2023-05-03T12:46:20;4.73;;;2.40;;
14326;SDS011;7247;53.330;-1.180;2023-05-03T12:48:49;3.20;;;2.80;;
14326;SDS011;7247;53.330;-1.180;2023-05-03T12:51:15;2.93;;;2.43;;
14326;SDS011;7247;53.330;-1.180;2023-05-03T12:53:42;4.87;;;2.40;;
14326;SDS011;7247;53.330;-1.180;2023-05-03T12:56:09;3.80;;;2.67;;
14326;SDS011;7247;53.330;-1.180;2023-05-03T12:58:36;2.77;;;2.40;;
14326;SDS011;7247;53.330;-1.180;2023-05-03T13:01:02;3.50;;;2.13;;
14326;SDS011;7247;53.330;-1.180;2023-05-03T13:03:29;2.57;;;1.90;;
14326;SDS011;7247;53.330;-1.180;2023-05-03T13:05:57;1.80;;;1.70;;
14326;SDS011;7247;53.330;-1.180;2023-05-03T13:08:23;2.93;;;2.03;;
14326;SDS011;7247;53.330;-1.180;2023-05-03T13:10:50;2.53;;;1.93;;
14326;SDS011;7247;53.330;-1.180;2023-05-03T13:13:17;2.43;;;1.60;;
14326;SDS011;7247;53.330;-1.180;2023-05-03T13:15:43;3.37;;;2.03;;
14326;SDS011;7247;53.330;-1.180;2023-05-03T13:18:10;2.87;;;1.80;;
14326;SDS011;7247;53.330;-1.180;2023-05-03T13:20:38;3.07;;;1.90;;
14326;SDS011;7247;53.330;-1.180;2023-05-03T13:23:06;2.73;;;1.93;;
14326;SDS011;7247;53.330;-1.180;2023-05-03T13:25:32;3.93;;;2.03;;
14326;SDS011;7247;53.330;-1.180;2023-05-03T13:27:59;3.05;;;1.80;;
14326;SDS011;7247;53.330;-1.180;2023-05-03T13:30:25;3.13;;;2.30;;
14326;SDS011;7247;53.330;-1.180;2023-05-03T13:32:52;3.38;;;2.08;;
14326;SDS011;7247;53.330;-1.180;2023-05-03T13:35:18;2.47;;;1.95;;
14326;SDS011;7247;53.330;-1.180;2023-05-03T13:37:45;3.58;;;2.00;;
14326;SDS011;7247;53.330;-1.180;2023-05-03T13:40:13;2.17;;;1.75;;
14326;SDS011;7247;53.330;-1.180;2023-05-03T13:42:40;2.05;;;1.80;;
14326;SDS011;7247;53.330;-1.180;2023-05-03T13:45:07;5.53;;;1.73;;
14326;SDS011;7247;53.330;-1.180;2023-05-03T13:47:33;4.47;;;1.63;;
14326;SDS011;7247;53.330;-1.180;2023-05-03T13:50:00;2.00;;;1.60;;
14326;SDS011;7247;53.330;-1.180;2023-05-03T13:52:27;3.22;;;1.75;;
14326;SDS011;7247;53.330;-1.180;2023-05-03T13:54:53;3.08;;;1.73;;
14326;SDS011;7247;53.330;-1.180;2023-05-03T13:57:23;3.67;;;1.65;;
14326;SDS011;7247;53.330;-1.180;2023-05-03T13:59:49;2.63;;;1.80;;
14326;SDS011;7247;53.330;-1.180;2023-05-03T14:02:15;3.28;;;1.70;;
14326;SDS011;7247;53.330;-1.180;2023-05-03T14:04:42;2.67;;;1.80;;
14326;SDS011;7247;53.330;-1.180;2023-05-03T14:07:08;2.10;;;1.63;;
14326;SDS011;7247;53.330;-1.180;2023-05-03T14:09:35;2.73;;;1.80;;
14326;SDS011;7247;53.330;-1.180;2023-05-03T14:12:04;2.67;;;1.77;;
14326;SDS011;7247;53.330;-1.180;2023-05-03T14:14:32;3.57;;;1.70;;
14326;SDS011;7247;53.330;-1.180;2023-05-03T14:16:58;2.47;;;1.80;;
14326;SDS011;7247;53.330;-1.180;2023-05-03T14:19:25;2.67;;;2.00;;
14326;SDS011;7247;53.330;-1.180;2023-05-03T14:21:54;4.53;;;1.90;;
14326;SDS011;7247;53.330;-1.180;2023-05-03T14:24:23;2.77;;;2.10;;
14326;SDS011;7247;53.330;-1.180;2023-05-03T14:26:49;4.13;;;1.77;;
14326;SDS011;7247;53.330;-1.180;2023-05-03T14:29:16;3.27;;;2.20;;
14326;SDS011;7247;53.330;-1.180;2023-05-03T14:31:44;3.17;;;2.00;;
14326;SDS011;7247;53.330;-1.180;2023-05-03T14:34:10;2.63;;;1.87;;
14326;SDS011;7247;53.330;-1.180;2023-05-03T14:36:37;3.90;;;2.10;;
14326;SDS011;7247;53.330;-1.180;2023-05-03T14:39:07;4.80;;;2.13;;
14326;SDS011;7247;53.330;-1.180;2023-05-03T14:41:34;4.73;;;2.07;;
14326;SDS011;7247;53.330;-1.180;2023-05-03T14:44:00;2.30;;;1.80;;
14326;SDS011;7247;53.330;-1.180;2023-05-03T14:46:27;2.87;;;1.70;;
14326;SDS011;7247;53.330;-1.180;2023-05-03T14:48:55;3.50;;;2.00;;